sensor_id;sensor_type;location;lat;lon;timestamp;temperature;humidity
8565;DHT22;4320;51.498;6.556;2023-06-19T00:00:30;24.50;1.00
8565;DHT22;4320;51.498;6.556;2023-06-19T00:02:56;24.20;1.00
8565;DHT22;4320;51.498;6.556;2023-06-19T00:05:22;24.10;1.00
8565;DHT22;4320;51.498;6.556;2023-06-19T00:07:48;24.00;1.00
8565;DHT22;4320;51.498;6.556;2023-06-19T00:10:14;24.20;1.00
8565;DHT22;4320;51.498;6.556;2023-06-19T00:12:40;24.20;1.00
8565;DHT22;4320;51.498;6.556;2023-06-19T00:15:06;24.30;1.00
8565;DHT22;4320;51.498;6.556;2023-06-19T00:17:34;24.40;1.00
8565;DHT22;4320;51.498;6.556;2023-06-19T00:20:03;24.40;1.00
8565;DHT22;4320;51.498;6.556;2023-06-19T00:22:30;24.40;1.00
8565;DHT22;4320;51.498;6.556;2023-06-19T00:24:56;24.50;1.00
8565;DHT22;4320;51.498;6.556;2023-06-19T00:27:22;24.50;1.00
8565;DHT22;4320;51.498;6.556;2023-06-19T00:29:47;24.50;1.00
8565;DHT22;4320;51.498;6.556;2023-06-19T00:32:13;24.50;1.00
8565;DHT22;4320;51.498;6.556;2023-06-19T00:34:39;24.50;1.00
8565;DHT22;4320;51.498;6.556;2023-06-19T00:37:04;24.40;1.00
8565;DHT22;4320;51.498;6.556;2023-06-19T00:39:30;24.50;1.00
8565;DHT22;4320;51.498;6.556;2023-06-19T00:41:56;24.40;1.00
8565;DHT22;4320;51.498;6.556;2023-06-19T00:44:22;24.30;1.00
8565;DHT22;4320;51.498;6.556;2023-06-19T00:46:51;23.90;1.00
8565;DHT22;4320;51.498;6.556;2023-06-19T00:49:20;24.00;1.00
8565;DHT22;4320;51.498;6.556;2023-06-19T00:51:46;24.10;1.00
8565;DHT22;4320;51.498;6.556;2023-06-19T00:54:12;24.20;1.00
8565;DHT22;4320;51.498;6.556;2023-06-19T00:56:38;24.20;1.00
8565;DHT22;4320;51.498;6.556;2023-06-19T00:59:17;24.20;1.00
8565;DHT22;4320;51.498;6.556;2023-06-19T01:01:43;24.30;1.00
8565;DHT22;4320;51.498;6.556;2023-06-19T01:04:09;24.20;1.00
8565;DHT22;4320;51.498;6.556;2023-06-19T01:06:50;24.20;1.00
8565;DHT22;4320;51.498;6.556;2023-06-19T01:09:19;24.20;1.00
8565;DHT22;4320;51.498;6.556;2023-06-19T01:11:52;24.20;1.00
8565;DHT22;4320;51.498;6.556;2023-06-19T01:14:30;24.10;1.00
8565;DHT22;4320;51.498;6.556;2023-06-19T01:16:58;24.10;1.00
8565;DHT22;4320;51.498;6.556;2023-06-19T01:19:24;24.00;1.00
8565;DHT22;4320;51.498;6.556;2023-06-19T01:21:51;23.90;1.00
8565;DHT22;4320;51.498;6.556;2023-06-19T01:24:17;23.90;1.00
8565;DHT22;4320;51.498;6.556;2023-06-19T01:26:42;23.90;1.00
8565;DHT22;4320;51.498;6.556;2023-06-19T01:29:12;23.90;1.00
8565;DHT22;4320;51.498;6.556;2023-06-19T01:34:17;23.90;1.00
8565;DHT22;4320;51.498;6.556;2023-06-19T01:36:46;23.90;1.00
8565;DHT22;4320;51.498;6.556;2023-06-19T01:39:15;23.90;1.00
8565;DHT22;4320;51.498;6.556;2023-06-19T01:41:41;23.80;1.00
8565;DHT22;4320;51.498;6.556;2023-06-19T01:44:08;23.80;1.00
8565;DHT22;4320;51.498;6.556;2023-06-19T01:46:34;23.80;1.00
8565;DHT22;4320;51.498;6.556;2023-06-19T01:49:00;23.80;1.00
8565;DHT22;4320;51.498;6.556;2023-06-19T01:51:25;23.70;1.00
8565;DHT22;4320;51.498;6.556;2023-06-19T01:53:51;23.70;1.00
8565;DHT22;4320;51.498;6.556;2023-06-19T01:56:16;23.60;1.00
8565;DHT22;4320;51.498;6.556;2023-06-19T01:58:42;23.50;1.00
8565;DHT22;4320;51.498;6.556;2023-06-19T02:01:08;23.20;1.00
8565;DHT22;4320;51.498;6.556;2023-06-19T02:03:33;23.20;1.00
8565;DHT22;4320;51.498;6.556;2023-06-19T02:05:59;23.00;1.00
8565;DHT22;4320;51.498;6.556;2023-06-19T02:08:24;23.00;1.00
8565;DHT22;4320;51.498;6.556;2023-06-19T02:10:50;23.00;1.00
8565;DHT22;4320;51.498;6.556;2023-06-19T02:13:16;23.10;1.00
8565;DHT22;4320;51.498;6.556;2023-06-19T02:15:41;23.30;1.00
8565;DHT22;4320;51.498;6.556;2023-06-19T02:18:08;23.30;1.00
8565;DHT22;4320;51.498;6.556;2023-06-19T02:20:33;23.40;1.00
8565;DHT22;4320;51.498;6.556;2023-06-19T02:22:59;23.30;1.00
8565;DHT22;4320;51.498;6.556;2023-06-19T02:25:25;23.40;1.00
8565;DHT22;4320;51.498;6.556;2023-06-19T02:27:50;23.30;1.00
8565;DHT22;4320;51.498;6.556;2023-06-19T02:30:16;23.20;1.00
8565;DHT22;4320;51.498;6.556;2023-06-19T02:32:42;23.20;1.00
8565;DHT22;4320;51.498;6.556;2023-06-19T02:35:10;23.30;1.00
8565;DHT22;4320;51.498;6.556;2023-06-19T02:37:35;23.30;1.00
8565;DHT22;4320;51.498;6.556;2023-06-19T02:40:03;23.40;1.00
8565;DHT22;4320;51.498;6.556;2023-06-19T02:42:30;23.50;1.00
8565;DHT22;4320;51.498;6.556;2023-06-19T02:44:56;23.40;1.00
8565;DHT22;4320;51.498;6.556;2023-06-19T02:47:31;23.40;1.00
8565;DHT22;4320;51.498;6.556;2023-06-19T02:50:00;23.50;1.00
8565;DHT22;4320;51.498;6.556;2023-06-19T02:52:27;23.50;1.00
8565;DHT22;4320;51.498;6.556;2023-06-19T02:54:53;23.40;1.00
8565;DHT22;4320;51.498;6.556;2023-06-19T02:57:18;23.30;1.00
8565;DHT22;4320;51.498;6.556;2023-06-19T02:59:44;23.30;1.00
8565;DHT22;4320;51.498;6.556;2023-06-19T03:02:11;23.30;1.00
8565;DHT22;4320;51.498;6.556;2023-06-19T03:04:37;23.40;1.00
8565;DHT22;4320;51.498;6.556;2023-06-19T03:07:03;23.40;1.00
8565;DHT22;4320;51.498;6.556;2023-06-19T03:09:28;23.40;1.00
8565;DHT22;4320;51.498;6.556;2023-06-19T03:11:54;23.40;1.00
8565;DHT22;4320;51.498;6.556;2023-06-19T03:14:20;23.30;1.00
8565;DHT22;4320;51.498;6.556;2023-06-19T03:16:45;23.30;1.00
8565;DHT22;4320;51.498;6.556;2023-06-19T03:19:11;23.30;1.00
8565;DHT22;4320;51.498;6.556;2023-06-19T03:21:37;23.20;1.00
8565;DHT22;4320;51.498;6.556;2023-06-19T03:24:03;23.10;1.00
8565;DHT22;4320;51.498;6.556;2023-06-19T03:26:29;23.00;1.00
8565;DHT22;4320;51.498;6.556;2023-06-19T03:28:55;22.90;1.00
8565;DHT22;4320;51.498;6.556;2023-06-19T03:31:20;22.70;1.00
8565;DHT22;4320;51.498;6.556;2023-06-19T03:33:46;22.50;1.00
8565;DHT22;4320;51.498;6.556;2023-06-19T03:36:12;22.50;1.00
8565;DHT22;4320;51.498;6.556;2023-06-19T03:38:37;22.40;1.00
8565;DHT22;4320;51.498;6.556;2023-06-19T03:41:03;22.40;1.00
8565;DHT22;4320;51.498;6.556;2023-06-19T03:43:29;22.50;1.00
8565;DHT22;4320;51.498;6.556;2023-06-19T03:45:54;22.60;1.00
8565;DHT22;4320;51.498;6.556;2023-06-19T03:48:20;22.50;1.00
8565;DHT22;4320;51.498;6.556;2023-06-19T03:50:45;22.30;1.00
8565;DHT22;4320;51.498;6.556;2023-06-19T03:53:11;22.30;1.00
8565;DHT22;4320;51.498;6.556;2023-06-19T03:55:37;22.30;1.00
8565;DHT22;4320;51.498;6.556;2023-06-19T03:58:02;22.50;1.00
8565;DHT22;4320;51.498;6.556;2023-06-19T04:00:28;22.30;1.00
8565;DHT22;4320;51.498;6.556;2023-06-19T04:02:54;22.20;1.00
8565;DHT22;4320;51.498;6.556;2023-06-19T04:05:19;22.00;1.00
8565;DHT22;4320;51.498;6.556;2023-06-19T04:07:45;21.90;1.00
8565;DHT22;4320;51.498;6.556;2023-06-19T04:10:11;21.80;1.00
8565;DHT22;4320;51.498;6.556;2023-06-19T04:12:37;21.80;1.00
8565;DHT22;4320;51.498;6.556;2023-06-19T04:15:03;21.80;1.00
8565;DHT22;4320;51.498;6.556;2023-06-19T04:17:29;21.90;1.00
8565;DHT22;4320;51.498;6.556;2023-06-19T04:19:55;22.00;1.00
8565;DHT22;4320;51.498;6.556;2023-06-19T04:22:20;22.10;1.00
8565;DHT22;4320;51.498;6.556;2023-06-19T04:24:46;22.20;1.00
8565;DHT22;4320;51.498;6.556;2023-06-19T04:27:11;22.20;1.00
8565;DHT22;4320;51.498;6.556;2023-06-19T04:29:37;22.20;1.00
8565;DHT22;4320;51.498;6.556;2023-06-19T04:32:03;22.40;1.00
8565;DHT22;4320;51.498;6.556;2023-06-19T04:34:41;22.70;1.00
8565;DHT22;4320;51.498;6.556;2023-06-19T04:37:12;22.70;1.00
8565;DHT22;4320;51.498;6.556;2023-06-19T04:39:37;22.70;1.00
8565;DHT22;4320;51.498;6.556;2023-06-19T04:42:03;22.80;1.00
8565;DHT22;4320;51.498;6.556;2023-06-19T04:44:29;22.40;1.00
8565;DHT22;4320;51.498;6.556;2023-06-19T04:46:59;22.30;1.00
8565;DHT22;4320;51.498;6.556;2023-06-19T04:49:28;21.90;1.00
8565;DHT22;4320;51.498;6.556;2023-06-19T04:51:55;21.90;1.00
8565;DHT22;4320;51.498;6.556;2023-06-19T04:54:21;21.90;1.00
8565;DHT22;4320;51.498;6.556;2023-06-19T04:56:47;21.80;1.00
8565;DHT22;4320;51.498;6.556;2023-06-19T04:59:12;21.50;1.00
8565;DHT22;4320;51.498;6.556;2023-06-19T05:01:38;21.50;1.00
8565;DHT22;4320;51.498;6.556;2023-06-19T05:04:05;21.50;1.00
8565;DHT22;4320;51.498;6.556;2023-06-19T05:06:31;21.70;1.00
8565;DHT22;4320;51.498;6.556;2023-06-19T05:08:56;21.80;1.00
8565;DHT22;4320;51.498;6.556;2023-06-19T05:11:22;21.90;1.00
8565;DHT22;4320;51.498;6.556;2023-06-19T05:13:48;21.80;1.00
8565;DHT22;4320;51.498;6.556;2023-06-19T05:16:13;21.70;1.00
8565;DHT22;4320;51.498;6.556;2023-06-19T05:18:42;21.80;1.00
8565;DHT22;4320;51.498;6.556;2023-06-19T05:21:08;21.80;1.00
8565;DHT22;4320;51.498;6.556;2023-06-19T05:23:34;21.90;1.00
8565;DHT22;4320;51.498;6.556;2023-06-19T05:26:00;21.90;1.00
8565;DHT22;4320;51.498;6.556;2023-06-19T05:28:26;21.90;1.00
8565;DHT22;4320;51.498;6.556;2023-06-19T05:30:51;21.90;1.00
8565;DHT22;4320;51.498;6.556;2023-06-19T05:33:17;21.80;1.00
8565;DHT22;4320;51.498;6.556;2023-06-19T05:35:43;21.70;1.00
8565;DHT22;4320;51.498;6.556;2023-06-19T05:38:09;21.70;1.00
8565;DHT22;4320;51.498;6.556;2023-06-19T05:40:34;21.80;1.00
8565;DHT22;4320;51.498;6.556;2023-06-19T05:43:00;21.80;1.00
8565;DHT22;4320;51.498;6.556;2023-06-19T05:45:26;21.90;1.00
8565;DHT22;4320;51.498;6.556;2023-06-19T05:47:52;21.90;1.00
8565;DHT22;4320;51.498;6.556;2023-06-19T05:50:17;22.10;1.00
8565;DHT22;4320;51.498;6.556;2023-06-19T05:52:43;22.20;1.00
8565;DHT22;4320;51.498;6.556;2023-06-19T05:55:10;22.20;1.00
8565;DHT22;4320;51.498;6.556;2023-06-19T05:57:35;22.20;1.00
8565;DHT22;4320;51.498;6.556;2023-06-19T06:00:01;22.30;1.00
8565;DHT22;4320;51.498;6.556;2023-06-19T06:02:28;22.30;1.00
8565;DHT22;4320;51.498;6.556;2023-06-19T06:04:54;22.40;1.00
8565;DHT22;4320;51.498;6.556;2023-06-19T06:07:21;22.40;1.00
8565;DHT22;4320;51.498;6.556;2023-06-19T06:09:47;22.50;1.00
8565;DHT22;4320;51.498;6.556;2023-06-19T06:12:13;22.60;1.00
8565;DHT22;4320;51.498;6.556;2023-06-19T06:14:40;22.70;1.00
8565;DHT22;4320;51.498;6.556;2023-06-19T06:17:06;22.70;1.00
8565;DHT22;4320;51.498;6.556;2023-06-19T06:19:32;22.70;1.00
8565;DHT22;4320;51.498;6.556;2023-06-19T06:21:58;22.80;1.00
8565;DHT22;4320;51.498;6.556;2023-06-19T06:24:23;22.80;1.00
8565;DHT22;4320;51.498;6.556;2023-06-19T06:26:49;22.90;1.00
8565;DHT22;4320;51.498;6.556;2023-06-19T06:29:15;22.90;1.00
8565;DHT22;4320;51.498;6.556;2023-06-19T06:31:40;22.90;1.00
8565;DHT22;4320;51.498;6.556;2023-06-19T06:34:07;23.10;1.00
8565;DHT22;4320;51.498;6.556;2023-06-19T06:36:32;23.10;1.00
8565;DHT22;4320;51.498;6.556;2023-06-19T06:38:58;23.10;1.00
8565;DHT22;4320;51.498;6.556;2023-06-19T06:41:23;23.00;1.00
8565;DHT22;4320;51.498;6.556;2023-06-19T06:43:49;23.10;1.00
8565;DHT22;4320;51.498;6.556;2023-06-19T06:46:15;23.00;1.00
8565;DHT22;4320;51.498;6.556;2023-06-19T06:48:41;23.20;1.00
8565;DHT22;4320;51.498;6.556;2023-06-19T06:51:07;23.10;1.00
8565;DHT22;4320;51.498;6.556;2023-06-19T06:53:32;23.10;1.00
8565;DHT22;4320;51.498;6.556;2023-06-19T06:55:58;23.00;1.00
8565;DHT22;4320;51.498;6.556;2023-06-19T06:58:25;22.90;1.00
8565;DHT22;4320;51.498;6.556;2023-06-19T07:00:52;22.80;1.00
8565;DHT22;4320;51.498;6.556;2023-06-19T07:03:17;22.80;1.00
8565;DHT22;4320;51.498;6.556;2023-06-19T07:05:44;22.80;1.00
8565;DHT22;4320;51.498;6.556;2023-06-19T07:08:09;22.70;1.00
8565;DHT22;4320;51.498;6.556;2023-06-19T07:10:35;22.70;1.00
8565;DHT22;4320;51.498;6.556;2023-06-19T07:13:01;22.70;1.00
8565;DHT22;4320;51.498;6.556;2023-06-19T07:15:26;22.60;1.00
8565;DHT22;4320;51.498;6.556;2023-06-19T07:17:52;22.60;1.00
8565;DHT22;4320;51.498;6.556;2023-06-19T07:20:18;22.60;1.00
8565;DHT22;4320;51.498;6.556;2023-06-19T07:22:44;22.70;1.00
8565;DHT22;4320;51.498;6.556;2023-06-19T07:25:11;22.70;1.00
8565;DHT22;4320;51.498;6.556;2023-06-19T07:27:37;22.80;1.00
8565;DHT22;4320;51.498;6.556;2023-06-19T07:30:03;22.80;1.00
8565;DHT22;4320;51.498;6.556;2023-06-19T07:32:29;22.90;1.00
8565;DHT22;4320;51.498;6.556;2023-06-19T07:34:54;22.90;1.00
8565;DHT22;4320;51.498;6.556;2023-06-19T07:37:20;22.90;1.00
8565;DHT22;4320;51.498;6.556;2023-06-19T07:39:50;22.90;1.00
8565;DHT22;4320;51.498;6.556;2023-06-19T07:42:17;23.30;1.00
8565;DHT22;4320;51.498;6.556;2023-06-19T07:44:43;23.60;1.00
8565;DHT22;4320;51.498;6.556;2023-06-19T07:47:09;23.60;1.00
8565;DHT22;4320;51.498;6.556;2023-06-19T07:49:35;23.60;1.00
8565;DHT22;4320;51.498;6.556;2023-06-19T07:52:02;23.70;1.00
8565;DHT22;4320;51.498;6.556;2023-06-19T07:54:27;23.70;1.00
8565;DHT22;4320;51.498;6.556;2023-06-19T07:56:53;23.80;1.00
8565;DHT22;4320;51.498;6.556;2023-06-19T07:59:19;23.90;1.00
8565;DHT22;4320;51.498;6.556;2023-06-19T08:01:44;23.90;1.00
8565;DHT22;4320;51.498;6.556;2023-06-19T08:04:10;23.90;1.00
8565;DHT22;4320;51.498;6.556;2023-06-19T08:06:36;24.00;1.00
8565;DHT22;4320;51.498;6.556;2023-06-19T08:09:02;24.00;1.00
8565;DHT22;4320;51.498;6.556;2023-06-19T08:11:29;24.10;1.00
8565;DHT22;4320;51.498;6.556;2023-06-19T08:13:54;24.20;1.00
8565;DHT22;4320;51.498;6.556;2023-06-19T08:16:20;24.10;1.00
8565;DHT22;4320;51.498;6.556;2023-06-19T08:18:46;23.90;1.00
8565;DHT22;4320;51.498;6.556;2023-06-19T08:21:12;23.90;1.00
8565;DHT22;4320;51.498;6.556;2023-06-19T08:23:38;24.00;1.00
8565;DHT22;4320;51.498;6.556;2023-06-19T08:26:05;24.00;1.00
8565;DHT22;4320;51.498;6.556;2023-06-19T08:28:33;24.00;1.00
8565;DHT22;4320;51.498;6.556;2023-06-19T08:30:59;24.20;1.00
8565;DHT22;4320;51.498;6.556;2023-06-19T08:33:25;24.30;1.00
8565;DHT22;4320;51.498;6.556;2023-06-19T08:35:51;24.30;1.00
8565;DHT22;4320;51.498;6.556;2023-06-19T08:38:17;24.20;1.00
8565;DHT22;4320;51.498;6.556;2023-06-19T08:40:42;24.20;1.00
8565;DHT22;4320;51.498;6.556;2023-06-19T08:43:09;24.40;1.00
8565;DHT22;4320;51.498;6.556;2023-06-19T08:45:35;24.50;1.00
8565;DHT22;4320;51.498;6.556;2023-06-19T08:48:02;24.60;1.00
8565;DHT22;4320;51.498;6.556;2023-06-19T08:50:29;24.80;1.00
8565;DHT22;4320;51.498;6.556;2023-06-19T08:52:56;24.70;1.00
8565;DHT22;4320;51.498;6.556;2023-06-19T08:55:22;24.70;1.00
8565;DHT22;4320;51.498;6.556;2023-06-19T08:57:49;24.90;1.00
8565;DHT22;4320;51.498;6.556;2023-06-19T09:00:26;24.80;1.00
8565;DHT22;4320;51.498;6.556;2023-06-19T09:03:00;24.80;1.00
8565;DHT22;4320;51.498;6.556;2023-06-19T09:05:29;24.70;1.00
8565;DHT22;4320;51.498;6.556;2023-06-19T09:07:57;24.80;1.00
8565;DHT22;4320;51.498;6.556;2023-06-19T09:10:23;24.90;1.00
8565;DHT22;4320;51.498;6.556;2023-06-19T09:13:03;24.90;1.00
8565;DHT22;4320;51.498;6.556;2023-06-19T09:15:36;25.10;1.00
8565;DHT22;4320;51.498;6.556;2023-06-19T09:18:10;24.90;1.00
8565;DHT22;4320;51.498;6.556;2023-06-19T09:20:39;24.80;1.00
8565;DHT22;4320;51.498;6.556;2023-06-19T09:23:09;24.90;1.00
8565;DHT22;4320;51.498;6.556;2023-06-19T09:25:47;25.00;1.00
8565;DHT22;4320;51.498;6.556;2023-06-19T09:28:31;24.80;1.00
8565;DHT22;4320;51.498;6.556;2023-06-19T09:31:01;24.60;1.00
8565;DHT22;4320;51.498;6.556;2023-06-19T09:33:30;24.60;1.00
8565;DHT22;4320;51.498;6.556;2023-06-19T09:35:56;25.00;1.00
8565;DHT22;4320;51.498;6.556;2023-06-19T09:38:36;25.10;1.00
8565;DHT22;4320;51.498;6.556;2023-06-19T09:41:05;25.20;1.00
8565;DHT22;4320;51.498;6.556;2023-06-19T09:43:37;25.40;1.00
8565;DHT22;4320;51.498;6.556;2023-06-19T09:46:03;25.20;1.00
8565;DHT22;4320;51.498;6.556;2023-06-19T09:48:31;25.30;1.00
8565;DHT22;4320;51.498;6.556;2023-06-19T09:51:18;25.40;1.00
8565;DHT22;4320;51.498;6.556;2023-06-19T09:53:48;25.30;1.00
8565;DHT22;4320;51.498;6.556;2023-06-19T09:56:15;25.30;1.00
8565;DHT22;4320;51.498;6.556;2023-06-19T09:58:44;25.30;1.00
8565;DHT22;4320;51.498;6.556;2023-06-19T10:01:11;25.30;1.00
8565;DHT22;4320;51.498;6.556;2023-06-19T10:03:37;25.40;1.00
8565;DHT22;4320;51.498;6.556;2023-06-19T10:06:04;25.70;1.00
8565;DHT22;4320;51.498;6.556;2023-06-19T10:08:41;25.30;1.00
8565;DHT22;4320;51.498;6.556;2023-06-19T10:11:08;25.50;1.00
8565;DHT22;4320;51.498;6.556;2023-06-19T10:13:35;25.50;1.00
8565;DHT22;4320;51.498;6.556;2023-06-19T10:16:02;25.70;1.00
8565;DHT22;4320;51.498;6.556;2023-06-19T10:18:27;25.90;1.00
8565;DHT22;4320;51.498;6.556;2023-06-19T10:20:54;26.20;1.00
8565;DHT22;4320;51.498;6.556;2023-06-19T10:23:22;26.30;1.00
8565;DHT22;4320;51.498;6.556;2023-06-19T10:25:56;26.30;1.00
8565;DHT22;4320;51.498;6.556;2023-06-19T10:28:28;26.50;1.00
8565;DHT22;4320;51.498;6.556;2023-06-19T10:30:59;26.10;1.00
8565;DHT22;4320;51.498;6.556;2023-06-19T10:33:28;25.50;1.00
8565;DHT22;4320;51.498;6.556;2023-06-19T10:35:54;25.90;1.00
8565;DHT22;4320;51.498;6.556;2023-06-19T10:38:20;26.00;1.00
8565;DHT22;4320;51.498;6.556;2023-06-19T10:40:46;25.90;1.00
8565;DHT22;4320;51.498;6.556;2023-06-19T10:43:19;25.90;1.00
8565;DHT22;4320;51.498;6.556;2023-06-19T10:45:44;26.30;1.00
8565;DHT22;4320;51.498;6.556;2023-06-19T10:48:10;26.70;1.00
8565;DHT22;4320;51.498;6.556;2023-06-19T10:50:38;26.50;1.00
8565;DHT22;4320;51.498;6.556;2023-06-19T10:53:07;26.20;1.00
8565;DHT22;4320;51.498;6.556;2023-06-19T10:55:33;26.10;1.00
8565;DHT22;4320;51.498;6.556;2023-06-19T10:57:58;26.40;1.00
8565;DHT22;4320;51.498;6.556;2023-06-19T11:00:28;26.60;1.00
8565;DHT22;4320;51.498;6.556;2023-06-19T11:02:55;26.80;1.00
8565;DHT22;4320;51.498;6.556;2023-06-19T11:05:22;26.80;1.00
8565;DHT22;4320;51.498;6.556;2023-06-19T11:07:56;26.80;1.00
8565;DHT22;4320;51.498;6.556;2023-06-19T11:10:24;26.70;1.00
8565;DHT22;4320;51.498;6.556;2023-06-19T11:12:53;26.80;1.00
8565;DHT22;4320;51.498;6.556;2023-06-19T11:15:19;26.60;1.00
8565;DHT22;4320;51.498;6.556;2023-06-19T11:17:45;26.70;1.00
8565;DHT22;4320;51.498;6.556;2023-06-19T11:20:13;26.90;1.00
8565;DHT22;4320;51.498;6.556;2023-06-19T11:22:41;27.10;1.00
8565;DHT22;4320;51.498;6.556;2023-06-19T11:25:08;27.60;1.00
8565;DHT22;4320;51.498;6.556;2023-06-19T11:27:37;27.60;1.00
8565;DHT22;4320;51.498;6.556;2023-06-19T11:30:03;27.90;1.00
8565;DHT22;4320;51.498;6.556;2023-06-19T11:32:33;27.60;1.00
8565;DHT22;4320;51.498;6.556;2023-06-19T11:35:05;27.50;1.00
8565;DHT22;4320;51.498;6.556;2023-06-19T11:37:33;27.50;1.00
8565;DHT22;4320;51.498;6.556;2023-06-19T11:39:59;27.30;1.00
8565;DHT22;4320;51.498;6.556;2023-06-19T11:42:25;27.50;1.00
8565;DHT22;4320;51.498;6.556;2023-06-19T11:45:01;27.20;1.00
8565;DHT22;4320;51.498;6.556;2023-06-19T11:47:32;27.30;1.00
8565;DHT22;4320;51.498;6.556;2023-06-19T11:49:58;27.30;1.00
8565;DHT22;4320;51.498;6.556;2023-06-19T11:52:24;27.60;1.00
8565;DHT22;4320;51.498;6.556;2023-06-19T11:54:49;27.60;1.00
8565;DHT22;4320;51.498;6.556;2023-06-19T11:57:15;27.60;1.00
8565;DHT22;4320;51.498;6.556;2023-06-19T11:59:41;27.70;1.00
8565;DHT22;4320;51.498;6.556;2023-06-19T12:02:08;27.40;1.00
8565;DHT22;4320;51.498;6.556;2023-06-19T12:04:34;27.60;1.00
8565;DHT22;4320;51.498;6.556;2023-06-19T12:07:00;27.60;1.00
8565;DHT22;4320;51.498;6.556;2023-06-19T12:09:26;27.70;1.00
8565;DHT22;4320;51.498;6.556;2023-06-19T12:11:53;27.80;1.00
8565;DHT22;4320;51.498;6.556;2023-06-19T12:14:18;27.80;1.00
8565;DHT22;4320;51.498;6.556;2023-06-19T12:16:48;28.00;1.00
8565;DHT22;4320;51.498;6.556;2023-06-19T12:19:14;27.90;1.00
8565;DHT22;4320;51.498;6.556;2023-06-19T12:21:39;28.10;1.00
8565;DHT22;4320;51.498;6.556;2023-06-19T12:24:05;28.40;1.00
8565;DHT22;4320;51.498;6.556;2023-06-19T12:26:31;28.70;1.00
8565;DHT22;4320;51.498;6.556;2023-06-19T12:29:04;28.70;1.00
8565;DHT22;4320;51.498;6.556;2023-06-19T12:31:31;28.50;1.00
8565;DHT22;4320;51.498;6.556;2023-06-19T12:33:57;28.30;1.00
8565;DHT22;4320;51.498;6.556;2023-06-19T12:36:23;28.50;1.00
8565;DHT22;4320;51.498;6.556;2023-06-19T12:38:49;28.20;1.00
8565;DHT22;4320;51.498;6.556;2023-06-19T12:41:15;27.70;1.00
8565;DHT22;4320;51.498;6.556;2023-06-19T12:43:40;27.80;1.00
8565;DHT22;4320;51.498;6.556;2023-06-19T12:46:06;28.30;1.00
8565;DHT22;4320;51.498;6.556;2023-06-19T12:48:32;28.80;1.00
8565;DHT22;4320;51.498;6.556;2023-06-19T12:50:58;28.90;1.00
8565;DHT22;4320;51.498;6.556;2023-06-19T12:53:24;29.30;1.00
8565;DHT22;4320;51.498;6.556;2023-06-19T12:55:54;29.70;1.00
8565;DHT22;4320;51.498;6.556;2023-06-19T12:58:19;29.90;1.00
8565;DHT22;4320;51.498;6.556;2023-06-19T13:00:45;29.90;1.00
8565;DHT22;4320;51.498;6.556;2023-06-19T13:03:10;29.90;1.00
8565;DHT22;4320;51.498;6.556;2023-06-19T13:05:36;30.00;1.00
8565;DHT22;4320;51.498;6.556;2023-06-19T13:08:02;30.00;1.00
8565;DHT22;4320;51.498;6.556;2023-06-19T13:10:27;29.70;1.00
8565;DHT22;4320;51.498;6.556;2023-06-19T13:12:53;29.80;1.00
8565;DHT22;4320;51.498;6.556;2023-06-19T13:15:19;29.70;1.00
8565;DHT22;4320;51.498;6.556;2023-06-19T13:17:44;29.00;1.00
8565;DHT22;4320;51.498;6.556;2023-06-19T13:20:10;29.10;1.00
8565;DHT22;4320;51.498;6.556;2023-06-19T13:22:36;29.50;1.00
8565;DHT22;4320;51.498;6.556;2023-06-19T13:25:01;29.80;1.00
8565;DHT22;4320;51.498;6.556;2023-06-19T13:27:27;30.00;1.00
8565;DHT22;4320;51.498;6.556;2023-06-19T13:29:54;29.70;1.00
8565;DHT22;4320;51.498;6.556;2023-06-19T13:32:20;29.80;1.00
8565;DHT22;4320;51.498;6.556;2023-06-19T13:34:45;29.90;1.00
8565;DHT22;4320;51.498;6.556;2023-06-19T13:37:11;29.90;1.00
8565;DHT22;4320;51.498;6.556;2023-06-19T13:39:37;29.60;1.00
8565;DHT22;4320;51.498;6.556;2023-06-19T13:42:04;29.60;1.00
8565;DHT22;4320;51.498;6.556;2023-06-19T13:44:29;29.50;1.00
8565;DHT22;4320;51.498;6.556;2023-06-19T13:46:55;29.30;1.00
8565;DHT22;4320;51.498;6.556;2023-06-19T13:49:21;29.30;1.00
8565;DHT22;4320;51.498;6.556;2023-06-19T13:51:47;29.30;1.00
8565;DHT22;4320;51.498;6.556;2023-06-19T13:54:12;29.30;1.00
8565;DHT22;4320;51.498;6.556;2023-06-19T13:56:39;29.20;1.00
8565;DHT22;4320;51.498;6.556;2023-06-19T13:59:05;29.20;1.00
8565;DHT22;4320;51.498;6.556;2023-06-19T14:01:31;28.80;1.00
8565;DHT22;4320;51.498;6.556;2023-06-19T14:03:57;28.80;1.00
8565;DHT22;4320;51.498;6.556;2023-06-19T14:06:24;28.80;1.00
8565;DHT22;4320;51.498;6.556;2023-06-19T14:08:50;28.90;1.00
8565;DHT22;4320;51.498;6.556;2023-06-19T14:11:15;29.00;1.00
8565;DHT22;4320;51.498;6.556;2023-06-19T14:13:41;28.90;1.00
8565;DHT22;4320;51.498;6.556;2023-06-19T14:16:07;29.00;1.00
8565;DHT22;4320;51.498;6.556;2023-06-19T14:18:33;28.80;1.00
8565;DHT22;4320;51.498;6.556;2023-06-19T14:20:59;28.90;1.00
8565;DHT22;4320;51.498;6.556;2023-06-19T14:23:24;28.70;1.00
8565;DHT22;4320;51.498;6.556;2023-06-19T14:25:50;28.90;1.00
8565;DHT22;4320;51.498;6.556;2023-06-19T14:28:15;28.60;1.00
8565;DHT22;4320;51.498;6.556;2023-06-19T14:30:41;28.70;1.00
8565;DHT22;4320;51.498;6.556;2023-06-19T14:33:07;28.60;1.00
8565;DHT22;4320;51.498;6.556;2023-06-19T14:35:35;28.70;1.00
8565;DHT22;4320;51.498;6.556;2023-06-19T14:38:01;28.60;1.00
8565;DHT22;4320;51.498;6.556;2023-06-19T14:40:27;28.60;1.00
8565;DHT22;4320;51.498;6.556;2023-06-19T14:42:52;28.70;1.00
8565;DHT22;4320;51.498;6.556;2023-06-19T14:45:18;28.80;1.00
8565;DHT22;4320;51.498;6.556;2023-06-19T14:47:43;28.90;1.00
8565;DHT22;4320;51.498;6.556;2023-06-19T14:50:09;28.90;1.00
8565;DHT22;4320;51.498;6.556;2023-06-19T14:52:35;28.90;1.00
8565;DHT22;4320;51.498;6.556;2023-06-19T14:55:00;29.10;1.00
8565;DHT22;4320;51.498;6.556;2023-06-19T14:57:26;28.70;1.00
8565;DHT22;4320;51.498;6.556;2023-06-19T14:59:52;29.00;1.00
8565;DHT22;4320;51.498;6.556;2023-06-19T15:02:17;29.20;1.00
8565;DHT22;4320;51.498;6.556;2023-06-19T15:04:43;29.20;1.00
8565;DHT22;4320;51.498;6.556;2023-06-19T15:07:08;29.10;1.00
8565;DHT22;4320;51.498;6.556;2023-06-19T15:09:34;29.10;1.00
8565;DHT22;4320;51.498;6.556;2023-06-19T15:12:00;29.20;1.00
8565;DHT22;4320;51.498;6.556;2023-06-19T15:14:26;29.10;1.00
8565;DHT22;4320;51.498;6.556;2023-06-19T15:16:51;28.90;1.00
8565;DHT22;4320;51.498;6.556;2023-06-19T15:19:17;29.10;1.00
8565;DHT22;4320;51.498;6.556;2023-06-19T15:21:42;29.10;1.00
8565;DHT22;4320;51.498;6.556;2023-06-19T15:24:08;28.70;1.00
8565;DHT22;4320;51.498;6.556;2023-06-19T15:26:34;28.90;1.00
8565;DHT22;4320;51.498;6.556;2023-06-19T15:29:01;29.10;1.00
8565;DHT22;4320;51.498;6.556;2023-06-19T15:31:26;29.00;1.00
8565;DHT22;4320;51.498;6.556;2023-06-19T15:33:52;29.00;1.00
8565;DHT22;4320;51.498;6.556;2023-06-19T15:36:18;29.10;1.00
8565;DHT22;4320;51.498;6.556;2023-06-19T15:38:43;29.10;1.00
8565;DHT22;4320;51.498;6.556;2023-06-19T15:41:09;29.20;1.00
8565;DHT22;4320;51.498;6.556;2023-06-19T15:43:35;29.10;1.00
8565;DHT22;4320;51.498;6.556;2023-06-19T15:46:00;29.10;1.00
8565;DHT22;4320;51.498;6.556;2023-06-19T15:48:27;28.90;1.00
8565;DHT22;4320;51.498;6.556;2023-06-19T15:50:54;29.00;1.00
8565;DHT22;4320;51.498;6.556;2023-06-19T15:53:20;29.10;1.00
8565;DHT22;4320;51.498;6.556;2023-06-19T15:55:45;29.10;1.00
8565;DHT22;4320;51.498;6.556;2023-06-19T15:58:11;29.00;1.00
8565;DHT22;4320;51.498;6.556;2023-06-19T16:00:37;28.80;1.00
8565;DHT22;4320;51.498;6.556;2023-06-19T16:03:03;28.70;1.00
8565;DHT22;4320;51.498;6.556;2023-06-19T16:05:30;28.60;1.00
8565;DHT22;4320;51.498;6.556;2023-06-19T16:07:56;28.50;1.00
8565;DHT22;4320;51.498;6.556;2023-06-19T16:10:22;28.40;1.00
8565;DHT22;4320;51.498;6.556;2023-06-19T16:12:47;28.30;1.00
8565;DHT22;4320;51.498;6.556;2023-06-19T16:15:14;28.30;1.00